sensor_id;sensor_type;location;lat;lon;timestamp;P1;durP1;ratioP1;P2;durP2;ratioP2
3355;SDS011;1691;52.486;13.374;2023-04-15T00:00:55;26.23;;;20.60;;
3355;SDS011;1691;52.486;13.374;2023-04-15T00:03:24;27.53;;;20.70;;
3355;SDS011;1691;52.486;13.374;2023-04-15T00:05:52;27.67;;;21.33;;
3355;SDS011;1691;52.486;13.374;2023-04-15T00:08:19;29.97;;;21.93;;
3355;SDS011;1691;52.486;13.374;2023-04-15T00:10:46;30.00;;;21.50;;
3355;SDS011;1691;52.486;13.374;2023-04-15T00:13:13;29.93;;;21.97;;
3355;SDS011;1691;52.486;13.374;2023-04-15T00:18:10;28.23;;;21.57;;
3355;SDS011;1691;52.486;13.374;2023-04-15T00:20:37;29.20;;;20.60;;
3355;SDS011;1691;52.486;13.374;2023-04-15T00:23:04;28.57;;;22.37;;
3355;SDS011;1691;52.486;13.374;2023-04-15T00:25:31;28.17;;;21.43;;
3355;SDS011;1691;52.486;13.374;2023-04-15T00:27:59;32.77;;;23.17;;
3355;SDS011;1691;52.486;13.374;2023-04-15T00:30:26;29.17;;;22.53;;
3355;SDS011;1691;52.486;13.374;2023-04-15T00:32:53;33.60;;;23.37;;
3355;SDS011;1691;52.486;13.374;2023-04-15T00:35:20;30.37;;;22.30;;
3355;SDS011;1691;52.486;13.374;2023-04-15T00:37:47;33.93;;;23.70;;
3355;SDS011;1691;52.486;13.374;2023-04-15T00:40:15;32.07;;;22.80;;
3355;SDS011;1691;52.486;13.374;2023-04-15T00:42:44;31.80;;;23.40;;
3355;SDS011;1691;52.486;13.374;2023-04-15T00:45:11;32.20;;;23.57;;
3355;SDS011;1691;52.486;13.374;2023-04-15T00:47:40;38.13;;;25.00;;
3355;SDS011;1691;52.486;13.374;2023-04-15T00:50:08;31.60;;;23.63;;
3355;SDS011;1691;52.486;13.374;2023-04-15T00:52:36;33.80;;;25.07;;
3355;SDS011;1691;52.486;13.374;2023-04-15T00:55:05;34.10;;;24.03;;
3355;SDS011;1691;52.486;13.374;2023-04-15T00:57:33;36.97;;;24.63;;
3355;SDS011;1691;52.486;13.374;2023-04-15T01:00:01;33.57;;;25.40;;
3355;SDS011;1691;52.486;13.374;2023-04-15T01:02:30;35.30;;;25.60;;
3355;SDS011;1691;52.486;13.374;2023-04-15T01:04:58;35.50;;;24.80;;
3355;SDS011;1691;52.486;13.374;2023-04-15T01:07:26;35.37;;;25.00;;
3355;SDS011;1691;52.486;13.374;2023-04-15T01:09:53;33.97;;;23.83;;
3355;SDS011;1691;52.486;13.374;2023-04-15T01:12:20;36.37;;;25.07;;
3355;SDS011;1691;52.486;13.374;2023-04-15T01:14:48;33.47;;;25.13;;
3355;SDS011;1691;52.486;13.374;2023-04-15T01:17:15;38.17;;;26.37;;
3355;SDS011;1691;52.486;13.374;2023-04-15T01:19:42;38.30;;;24.83;;
3355;SDS011;1691;52.486;13.374;2023-04-15T01:22:09;39.23;;;25.63;;
3355;SDS011;1691;52.486;13.374;2023-04-15T01:24:37;39.90;;;26.27;;
3355;SDS011;1691;52.486;13.374;2023-04-15T01:27:05;36.50;;;25.07;;
3355;SDS011;1691;52.486;13.374;2023-04-15T01:29:35;41.10;;;25.50;;
3355;SDS011;1691;52.486;13.374;2023-04-15T01:32:03;43.37;;;27.77;;
3355;SDS011;1691;52.486;13.374;2023-04-15T01:34:31;36.60;;;25.47;;
3355;SDS011;1691;52.486;13.374;2023-04-15T01:37:00;40.83;;;26.47;;
3355;SDS011;1691;52.486;13.374;2023-04-15T01:39:27;44.50;;;27.70;;
3355;SDS011;1691;52.486;13.374;2023-04-15T01:41:54;43.57;;;28.17;;
3355;SDS011;1691;52.486;13.374;2023-04-15T01:44:22;41.13;;;26.70;;
3355;SDS011;1691;52.486;13.374;2023-04-15T01:46:49;42.33;;;26.83;;
3355;SDS011;1691;52.486;13.374;2023-04-15T01:49:16;43.30;;;28.87;;
3355;SDS011;1691;52.486;13.374;2023-04-15T01:51:44;45.60;;;27.27;;
3355;SDS011;1691;52.486;13.374;2023-04-15T01:54:11;46.97;;;27.73;;
3355;SDS011;1691;52.486;13.374;2023-04-15T01:56:38;40.70;;;27.60;;
3355;SDS011;1691;52.486;13.374;2023-04-15T01:59:05;47.03;;;28.47;;
3355;SDS011;1691;52.486;13.374;2023-04-15T02:01:32;43.83;;;27.97;;
3355;SDS011;1691;52.486;13.374;2023-04-15T02:03:59;47.57;;;28.83;;
3355;SDS011;1691;52.486;13.374;2023-04-15T02:06:26;40.03;;;26.50;;
3355;SDS011;1691;52.486;13.374;2023-04-15T02:08:53;51.33;;;30.07;;
3355;SDS011;1691;52.486;13.374;2023-04-15T02:11:20;46.80;;;28.47;;
3355;SDS011;1691;52.486;13.374;2023-04-15T02:13:48;51.13;;;29.17;;
3355;SDS011;1691;52.486;13.374;2023-04-15T02:16:18;47.67;;;28.43;;
3355;SDS011;1691;52.486;13.374;2023-04-15T02:18:46;46.17;;;28.73;;
3355;SDS011;1691;52.486;13.374;2023-04-15T02:21:13;49.50;;;28.90;;
3355;SDS011;1691;52.486;13.374;2023-04-15T02:23:40;49.40;;;28.50;;
3355;SDS011;1691;52.486;13.374;2023-04-15T02:26:07;44.33;;;26.20;;
3355;SDS011;1691;52.486;13.374;2023-04-15T02:28:34;43.43;;;26.87;;
3355;SDS011;1691;52.486;13.374;2023-04-15T02:31:05;47.07;;;29.40;;
3355;SDS011;1691;52.486;13.374;2023-04-15T02:33:33;43.47;;;27.67;;
3355;SDS011;1691;52.486;13.374;2023-04-15T02:36:00;43.70;;;26.40;;
3355;SDS011;1691;52.486;13.374;2023-04-15T02:38:27;44.67;;;28.23;;
3355;SDS011;1691;52.486;13.374;2023-04-15T02:40:54;42.67;;;28.23;;
3355;SDS011;1691;52.486;13.374;2023-04-15T02:43:22;42.30;;;27.63;;
3355;SDS011;1691;52.486;13.374;2023-04-15T02:45:49;46.23;;;28.53;;
3355;SDS011;1691;52.486;13.374;2023-04-15T02:48:17;45.70;;;28.07;;
3355;SDS011;1691;52.486;13.374;2023-04-15T02:50:45;44.57;;;26.57;;
3355;SDS011;1691;52.486;13.374;2023-04-15T02:53:13;44.50;;;28.20;;
3355;SDS011;1691;52.486;13.374;2023-04-15T02:55:40;53.23;;;27.80;;
3355;SDS011;1691;52.486;13.374;2023-04-15T02:58:10;44.50;;;28.10;;
3355;SDS011;1691;52.486;13.374;2023-04-15T03:00:37;47.10;;;27.40;;
3355;SDS011;1691;52.486;13.374;2023-04-15T03:03:04;44.13;;;28.20;;
3355;SDS011;1691;52.486;13.374;2023-04-15T03:05:32;44.37;;;26.70;;
3355;SDS011;1691;52.486;13.374;2023-04-15T03:07:59;51.00;;;27.60;;
3355;SDS011;1691;52.486;13.374;2023-04-15T03:10:26;47.33;;;26.83;;
3355;SDS011;1691;52.486;13.374;2023-04-15T03:12:53;44.00;;;27.70;;
3355;SDS011;1691;52.486;13.374;2023-04-15T03:15:20;46.43;;;27.30;;
3355;SDS011;1691;52.486;13.374;2023-04-15T03:17:48;45.10;;;26.83;;
3355;SDS011;1691;52.486;13.374;2023-04-15T03:20:15;42.60;;;27.20;;
3355;SDS011;1691;52.486;13.374;2023-04-15T03:22:42;46.63;;;27.10;;
3355;SDS011;1691;52.486;13.374;2023-04-15T03:25:09;44.20;;;26.87;;
3355;SDS011;1691;52.486;13.374;2023-04-15T03:27:37;41.93;;;26.60;;
3355;SDS011;1691;52.486;13.374;2023-04-15T03:30:04;39.00;;;26.83;;
3355;SDS011;1691;52.486;13.374;2023-04-15T03:32:33;45.70;;;26.47;;
3355;SDS011;1691;52.486;13.374;2023-04-15T03:35:00;43.27;;;26.37;;
3355;SDS011;1691;52.486;13.374;2023-04-15T03:37:27;50.80;;;26.23;;
3355;SDS011;1691;52.486;13.374;2023-04-15T03:39:54;43.20;;;26.43;;
3355;SDS011;1691;52.486;13.374;2023-04-15T03:42:21;41.47;;;25.90;;
3355;SDS011;1691;52.486;13.374;2023-04-15T03:44:48;43.00;;;25.40;;
3355;SDS011;1691;52.486;13.374;2023-04-15T03:47:15;37.00;;;24.00;;
3355;SDS011;1691;52.486;13.374;2023-04-15T03:49:42;47.13;;;27.03;;
3355;SDS011;1691;52.486;13.374;2023-04-15T03:52:09;39.70;;;25.70;;
3355;SDS011;1691;52.486;13.374;2023-04-15T03:54:36;37.10;;;25.20;;
3355;SDS011;1691;52.486;13.374;2023-04-15T03:57:03;38.17;;;24.43;;
3355;SDS011;1691;52.486;13.374;2023-04-15T03:59:30;37.67;;;24.83;;
3355;SDS011;1691;52.486;13.374;2023-04-15T04:01:57;35.77;;;23.90;;
3355;SDS011;1691;52.486;13.374;2023-04-15T04:04:24;31.47;;;22.77;;
3355;SDS011;1691;52.486;13.374;2023-04-15T04:06:51;39.27;;;24.57;;
3355;SDS011;1691;52.486;13.374;2023-04-15T04:09:18;36.70;;;23.07;;
3355;SDS011;1691;52.486;13.374;2023-04-15T04:11:45;38.87;;;22.63;;
3355;SDS011;1691;52.486;13.374;2023-04-15T04:14:12;31.03;;;21.97;;
3355;SDS011;1691;52.486;13.374;2023-04-15T04:16:39;39.60;;;24.13;;
3355;SDS011;1691;52.486;13.374;2023-04-15T04:19:06;32.90;;;21.80;;
3355;SDS011;1691;52.486;13.374;2023-04-15T04:21:33;40.20;;;22.60;;
3355;SDS011;1691;52.486;13.374;2023-04-15T04:24:01;31.70;;;22.30;;
3355;SDS011;1691;52.486;13.374;2023-04-15T04:26:28;31.00;;;21.90;;
3355;SDS011;1691;52.486;13.374;2023-04-15T04:28:55;31.57;;;21.33;;
3355;SDS011;1691;52.486;13.374;2023-04-15T04:31:22;32.37;;;21.83;;
3355;SDS011;1691;52.486;13.374;2023-04-15T04:33:49;29.83;;;20.80;;
3355;SDS011;1691;52.486;13.374;2023-04-15T04:36:16;36.23;;;21.07;;
3355;SDS011;1691;52.486;13.374;2023-04-15T04:38:43;33.63;;;19.93;;
3355;SDS011;1691;52.486;13.374;2023-04-15T04:41:10;40.43;;;21.47;;
3355;SDS011;1691;52.486;13.374;2023-04-15T04:43:37;30.03;;;19.80;;
3355;SDS011;1691;52.486;13.374;2023-04-15T04:46:04;30.37;;;20.17;;
3355;SDS011;1691;52.486;13.374;2023-04-15T04:48:31;27.80;;;19.30;;
3355;SDS011;1691;52.486;13.374;2023-04-15T04:50:58;32.90;;;21.97;;
3355;SDS011;1691;52.486;13.374;2023-04-15T04:53:25;28.40;;;20.30;;
3355;SDS011;1691;52.486;13.374;2023-04-15T04:55:53;32.50;;;21.30;;
3355;SDS011;1691;52.486;13.374;2023-04-15T04:58:20;28.97;;;20.30;;
3355;SDS011;1691;52.486;13.374;2023-04-15T05:00:47;25.97;;;18.73;;
3355;SDS011;1691;52.486;13.374;2023-04-15T05:03:14;25.20;;;18.90;;
3355;SDS011;1691;52.486;13.374;2023-04-15T05:05:41;28.07;;;19.60;;
3355;SDS011;1691;52.486;13.374;2023-04-15T05:08:08;28.13;;;19.20;;
3355;SDS011;1691;52.486;13.374;2023-04-15T05:10:35;26.87;;;20.10;;
3355;SDS011;1691;52.486;13.374;2023-04-15T05:13:02;28.03;;;19.20;;
3355;SDS011;1691;52.486;13.374;2023-04-15T05:15:29;27.00;;;19.80;;
3355;SDS011;1691;52.486;13.374;2023-04-15T05:17:56;23.90;;;18.43;;
3355;SDS011;1691;52.486;13.374;2023-04-15T05:20:23;25.73;;;19.10;;
3355;SDS011;1691;52.486;13.374;2023-04-15T05:22:51;22.90;;;18.00;;
3355;SDS011;1691;52.486;13.374;2023-04-15T05:25:18;26.23;;;18.43;;
3355;SDS011;1691;52.486;13.374;2023-04-15T05:27:44;26.57;;;18.17;;
3355;SDS011;1691;52.486;13.374;2023-04-15T05:30:12;25.20;;;17.70;;
3355;SDS011;1691;52.486;13.374;2023-04-15T05:32:39;21.20;;;16.70;;
3355;SDS011;1691;52.486;13.374;2023-04-15T05:35:06;24.73;;;17.50;;
3355;SDS011;1691;52.486;13.374;2023-04-15T05:37:33;22.10;;;16.50;;
3355;SDS011;1691;52.486;13.374;2023-04-15T05:40:01;22.57;;;17.50;;
3355;SDS011;1691;52.486;13.374;2023-04-15T05:42:29;17.40;;;15.43;;
3355;SDS011;1691;52.486;13.374;2023-04-15T05:44:56;30.83;;;16.60;;
3355;SDS011;1691;52.486;13.374;2023-04-15T05:47:23;20.43;;;15.57;;
3355;SDS011;1691;52.486;13.374;2023-04-15T05:49:50;20.63;;;16.10;;
3355;SDS011;1691;52.486;13.374;2023-04-15T05:52:17;18.50;;;14.47;;
3355;SDS011;1691;52.486;13.374;2023-04-15T05:54:44;24.20;;;16.90;;
3355;SDS011;1691;52.486;13.374;2023-04-15T05:57:11;25.80;;;16.37;;
3355;SDS011;1691;52.486;13.374;2023-04-15T05:59:38;19.97;;;15.43;;
3355;SDS011;1691;52.486;13.374;2023-04-15T06:02:08;15.87;;;14.23;;
3355;SDS011;1691;52.486;13.374;2023-04-15T06:04:36;20.47;;;15.90;;
3355;SDS011;1691;52.486;13.374;2023-04-15T06:07:03;17.90;;;14.17;;
3355;SDS011;1691;52.486;13.374;2023-04-15T06:09:30;18.00;;;14.70;;
3355;SDS011;1691;52.486;13.374;2023-04-15T06:11:57;17.07;;;14.10;;
3355;SDS011;1691;52.486;13.374;2023-04-15T06:14:24;14.97;;;13.03;;
3355;SDS011;1691;52.486;13.374;2023-04-15T06:16:51;17.40;;;13.37;;
3355;SDS011;1691;52.486;13.374;2023-04-15T06:19:18;15.63;;;12.63;;
3355;SDS011;1691;52.486;13.374;2023-04-15T06:21:45;16.63;;;14.50;;
3355;SDS011;1691;52.486;13.374;2023-04-15T06:24:12;16.73;;;13.60;;
3355;SDS011;1691;52.486;13.374;2023-04-15T06:26:39;14.70;;;12.83;;
3355;SDS011;1691;52.486;13.374;2023-04-15T06:29:06;14.83;;;13.30;;
3355;SDS011;1691;52.486;13.374;2023-04-15T06:31:33;16.20;;;12.70;;
3355;SDS011;1691;52.486;13.374;2023-04-15T06:34:01;14.37;;;12.37;;
3355;SDS011;1691;52.486;13.374;2023-04-15T06:36:28;13.73;;;12.30;;
3355;SDS011;1691;52.486;13.374;2023-04-15T06:38:55;17.03;;;13.07;;
3355;SDS011;1691;52.486;13.374;2023-04-15T06:41:22;17.23;;;11.57;;
3355;SDS011;1691;52.486;13.374;2023-04-15T06:43:49;13.93;;;12.23;;
3355;SDS011;1691;52.486;13.374;2023-04-15T06:46:16;15.40;;;12.43;;
3355;SDS011;1691;52.486;13.374;2023-04-15T06:48:43;32.60;;;12.93;;
3355;SDS011;1691;52.486;13.374;2023-04-15T06:51:10;18.80;;;12.87;;
3355;SDS011;1691;52.486;13.374;2023-04-15T06:53:37;12.60;;;11.30;;
3355;SDS011;1691;52.486;13.374;2023-04-15T06:56:07;14.00;;;11.60;;
3355;SDS011;1691;52.486;13.374;2023-04-15T06:58:35;14.00;;;12.20;;
3355;SDS011;1691;52.486;13.374;2023-04-15T07:01:02;12.33;;;11.07;;
3355;SDS011;1691;52.486;13.374;2023-04-15T07:03:29;16.50;;;11.77;;
3355;SDS011;1691;52.486;13.374;2023-04-15T07:05:58;10.70;;;9.67;;
3355;SDS011;1691;52.486;13.374;2023-04-15T07:08:26;12.40;;;11.17;;
3355;SDS011;1691;52.486;13.374;2023-04-15T07:10:53;12.97;;;11.63;;
3355;SDS011;1691;52.486;13.374;2023-04-15T07:13:20;12.30;;;11.03;;
3355;SDS011;1691;52.486;13.374;2023-04-15T07:15:47;15.77;;;11.63;;
3355;SDS011;1691;52.486;13.374;2023-04-15T07:18:14;14.43;;;11.20;;
3355;SDS011;1691;52.486;13.374;2023-04-15T07:20:41;15.50;;;12.63;;
3355;SDS011;1691;52.486;13.374;2023-04-15T07:23:08;19.57;;;12.50;;
3355;SDS011;1691;52.486;13.374;2023-04-15T07:25:35;15.53;;;11.13;;
3355;SDS011;1691;52.486;13.374;2023-04-15T07:28:02;12.20;;;11.00;;
3355;SDS011;1691;52.486;13.374;2023-04-15T07:30:30;12.30;;;11.10;;
3355;SDS011;1691;52.486;13.374;2023-04-15T07:32:57;12.10;;;10.90;;
3355;SDS011;1691;52.486;13.374;2023-04-15T07:35:24;12.90;;;11.13;;
3355;SDS011;1691;52.486;13.374;2023-04-15T07:37:51;11.73;;;10.53;;
3355;SDS011;1691;52.486;13.374;2023-04-15T07:40:18;25.53;;;11.37;;
3355;SDS011;1691;52.486;13.374;2023-04-15T07:42:45;16.33;;;11.50;;
3355;SDS011;1691;52.486;13.374;2023-04-15T07:45:14;17.30;;;9.87;;
3355;SDS011;1691;52.486;13.374;2023-04-15T07:47:42;12.67;;;11.40;;
3355;SDS011;1691;52.486;13.374;2023-04-15T07:50:09;12.40;;;11.30;;
3355;SDS011;1691;52.486;13.374;2023-04-15T07:52:39;27.77;;;12.30;;
3355;SDS011;1691;52.486;13.374;2023-04-15T07:55:07;16.40;;;11.43;;
3355;SDS011;1691;52.486;13.374;2023-04-15T07:57:35;13.83;;;11.30;;
3355;SDS011;1691;52.486;13.374;2023-04-15T08:00:03;16.57;;;11.00;;
3355;SDS011;1691;52.486;13.374;2023-04-15T08:02:32;14.10;;;12.57;;
3355;SDS011;1691;52.486;13.374;2023-04-15T08:05:03;15.03;;;11.70;;
3355;SDS011;1691;52.486;13.374;2023-04-15T08:07:31;13.67;;;12.20;;
3355;SDS011;1691;52.486;13.374;2023-04-15T08:09:58;14.43;;;13.00;;
3355;SDS011;1691;52.486;13.374;2023-04-15T08:12:25;18.60;;;12.60;;
3355;SDS011;1691;52.486;13.374;2023-04-15T08:14:52;13.43;;;12.03;;
3355;SDS011;1691;52.486;13.374;2023-04-15T08:17:20;22.20;;;11.40;;
3355;SDS011;1691;52.486;13.374;2023-04-15T08:19:47;15.73;;;12.23;;
3355;SDS011;1691;52.486;13.374;2023-04-15T08:22:14;13.70;;;11.13;;
3355;SDS011;1691;52.486;13.374;2023-04-15T08:24:44;14.30;;;12.90;;
3355;SDS011;1691;52.486;13.374;2023-04-15T08:27:11;15.27;;;13.43;;
3355;SDS011;1691;52.486;13.374;2023-04-15T08:29:38;16.20;;;13.17;;
3355;SDS011;1691;52.486;13.374;2023-04-15T08:32:05;14.53;;;13.07;;
3355;SDS011;1691;52.486;13.374;2023-04-15T08:34:33;16.73;;;13.57;;
3355;SDS011;1691;52.486;13.374;2023-04-15T08:37:00;14.33;;;12.87;;
3355;SDS011;1691;52.486;13.374;2023-04-15T08:39:27;13.83;;;12.53;;
3355;SDS011;1691;52.486;13.374;2023-04-15T08:42:00;15.77;;;14.00;;
3355;SDS011;1691;52.486;13.374;2023-04-15T08:44:29;14.33;;;13.03;;
3355;SDS011;1691;52.486;13.374;2023-04-15T08:47:00;16.53;;;12.70;;
3355;SDS011;1691;52.486;13.374;2023-04-15T08:49:31;16.30;;;13.30;;
3355;SDS011;1691;52.486;13.374;2023-04-15T08:51:59;23.30;;;13.03;;
3355;SDS011;1691;52.486;13.374;2023-04-15T08:54:28;20.90;;;13.87;;
3355;SDS011;1691;52.486;13.374;2023-04-15T08:56:56;16.40;;;14.00;;
3355;SDS011;1691;52.486;13.374;2023-04-15T08:59:23;14.80;;;13.33;;
3355;SDS011;1691;52.486;13.374;2023-04-15T09:01:50;15.27;;;13.80;;
3355;SDS011;1691;52.486;13.374;2023-04-15T09:04:18;17.67;;;13.60;;
3355;SDS011;1691;52.486;13.374;2023-04-15T09:06:45;15.70;;;13.00;;
3355;SDS011;1691;52.486;13.374;2023-04-15T09:09:12;14.53;;;13.13;;
3355;SDS011;1691;52.486;13.374;2023-04-15T09:11:40;18.27;;;14.07;;
3355;SDS011;1691;52.486;13.374;2023-04-15T09:14:08;21.23;;;15.07;;
3355;SDS011;1691;52.486;13.374;2023-04-15T09:19:26;20.47;;;14.00;;
3355;SDS011;1691;52.486;13.374;2023-04-15T09:21:54;14.57;;;13.17;;
3355;SDS011;1691;52.486;13.374;2023-04-15T09:24:24;19.83;;;13.60;;
3355;SDS011;1691;52.486;13.374;2023-04-15T09:27:04;14.77;;;13.27;;
3355;SDS011;1691;52.486;13.374;2023-04-15T09:29:31;15.50;;;14.00;;
3355;SDS011;1691;52.486;13.374;2023-04-15T09:32:08;13.17;;;12.10;;
3355;SDS011;1691;52.486;13.374;2023-04-15T09:34:40;14.10;;;12.67;;
3355;SDS011;1691;52.486;13.374;2023-04-15T09:37:07;16.80;;;14.20;;
3355;SDS011;1691;52.486;13.374;2023-04-15T09:39:48;14.90;;;12.60;;
3355;SDS011;1691;52.486;13.374;2023-04-15T09:42:17;29.80;;;19.20;;
3355;SDS011;1691;52.486;13.374;2023-04-15T09:44:51;15.40;;;13.23;;
3355;SDS011;1691;52.486;13.374;2023-04-15T09:47:28;20.13;;;18.10;;
3355;SDS011;1691;52.486;13.374;2023-04-15T09:49:57;17.13;;;15.47;;
3355;SDS011;1691;52.486;13.374;2023-04-15T09:52:26;14.97;;;13.27;;
3355;SDS011;1691;52.486;13.374;2023-04-15T09:54:57;18.77;;;15.90;;
3355;SDS011;1691;52.486;13.374;2023-04-15T09:57:29;29.73;;;19.73;;
3355;SDS011;1691;52.486;13.374;2023-04-15T10:00:04;16.10;;;14.43;;
3355;SDS011;1691;52.486;13.374;2023-04-15T10:02:34;17.07;;;15.30;;
3355;SDS011;1691;52.486;13.374;2023-04-15T10:05:02;20.27;;;17.00;;
3355;SDS011;1691;52.486;13.374;2023-04-15T10:07:29;23.20;;;18.47;;
3355;SDS011;1691;52.486;13.374;2023-04-15T10:09:58;18.30;;;14.00;;
3355;SDS011;1691;52.486;13.374;2023-04-15T10:12:27;26.37;;;17.10;;
3355;SDS011;1691;52.486;13.374;2023-04-15T10:14:58;177.13;;;114.00;;
3355;SDS011;1691;52.486;13.374;2023-04-15T10:17:32;18.60;;;15.90;;
3355;SDS011;1691;52.486;13.374;2023-04-15T10:20:01;16.60;;;15.00;;
3355;SDS011;1691;52.486;13.374;2023-04-15T10:22:30;15.83;;;14.17;;
3355;SDS011;1691;52.486;13.374;2023-04-15T10:25:00;25.13;;;17.70;;
3355;SDS011;1691;52.486;13.374;2023-04-15T10:27:29;15.93;;;14.40;;
3355;SDS011;1691;52.486;13.374;2023-04-15T10:29:57;18.00;;;15.27;;
3355;SDS011;1691;52.486;13.374;2023-04-15T10:32:28;14.23;;;13.03;;
3355;SDS011;1691;52.486;13.374;2023-04-15T10:34:56;33.20;;;21.27;;
3355;SDS011;1691;52.486;13.374;2023-04-15T10:37:34;15.50;;;13.90;;
3355;SDS011;1691;52.486;13.374;2023-04-15T10:42:58;53.33;;;26.03;;
3355;SDS011;1691;52.486;13.374;2023-04-15T10:45:31;21.90;;;15.50;;
3355;SDS011;1691;52.486;13.374;2023-04-15T10:48:02;18.57;;;15.07;;
3355;SDS011;1691;52.486;13.374;2023-04-15T10:50:32;16.20;;;14.60;;
3355;SDS011;1691;52.486;13.374;2023-04-15T10:53:01;14.83;;;13.40;;
3355;SDS011;1691;52.486;13.374;2023-04-15T10:55:31;15.90;;;13.80;;
3355;SDS011;1691;52.486;13.374;2023-04-15T10:58:01;14.50;;;12.97;;
3355;SDS011;1691;52.486;13.374;2023-04-15T11:00:28;14.67;;;12.87;;
3355;SDS011;1691;52.486;13.374;2023-04-15T11:02:58;19.00;;;15.80;;
3355;SDS011;1691;52.486;13.374;2023-04-15T11:08:14;11.87;;;10.90;;
3355;SDS011;1691;52.486;13.374;2023-04-15T11:13:15;12.80;;;11.70;;
3355;SDS011;1691;52.486;13.374;2023-04-15T11:15:47;13.90;;;12.67;;
3355;SDS011;1691;52.486;13.374;2023-04-15T11:18:18;17.43;;;15.20;;
3355;SDS011;1691;52.486;13.374;2023-04-15T11:20:48;14.83;;;13.27;;
3355;SDS011;1691;52.486;13.374;2023-04-15T11:23:20;14.07;;;12.83;;
3355;SDS011;1691;52.486;13.374;2023-04-15T11:26:02;12.40;;;11.20;;
3355;SDS011;1691;52.486;13.374;2023-04-15T11:28:43;15.73;;;14.23;;
3355;SDS011;1691;52.486;13.374;2023-04-15T11:31:14;15.17;;;13.77;;
3355;SDS011;1691;52.486;13.374;2023-04-15T11:33:59;15.03;;;13.73;;
3355;SDS011;1691;52.486;13.374;2023-04-15T11:36:28;13.57;;;12.37;;
3355;SDS011;1691;52.486;13.374;2023-04-15T11:38:57;15.07;;;13.57;;
3355;SDS011;1691;52.486;13.374;2023-04-15T11:41:25;14.73;;;13.20;;
3355;SDS011;1691;52.486;13.374;2023-04-15T11:43:52;17.30;;;15.60;;
3355;SDS011;1691;52.486;13.374;2023-04-15T11:46:19;14.30;;;13.07;;
3355;SDS011;1691;52.486;13.374;2023-04-15T11:48:48;23.43;;;13.30;;
3355;SDS011;1691;52.486;13.374;2023-04-15T11:51:15;14.23;;;12.73;;
3355;SDS011;1691;52.486;13.374;2023-04-15T11:53:45;13.90;;;12.67;;
3355;SDS011;1691;52.486;13.374;2023-04-15T11:56:18;14.63;;;12.77;;
3355;SDS011;1691;52.486;13.374;2023-04-15T11:58:51;13.97;;;12.67;;
3355;SDS011;1691;52.486;13.374;2023-04-15T12:01:35;15.03;;;13.47;;
3355;SDS011;1691;52.486;13.374;2023-04-15T12:04:15;15.57;;;14.07;;
3355;SDS011;1691;52.486;13.374;2023-04-15T12:06:50;14.67;;;13.17;;
3355;SDS011;1691;52.486;13.374;2023-04-15T12:09:17;17.43;;;14.97;;
3355;SDS011;1691;52.486;13.374;2023-04-15T12:11:49;16.83;;;12.87;;
3355;SDS011;1691;52.486;13.374;2023-04-15T12:14:24;14.10;;;12.67;;
3355;SDS011;1691;52.486;13.374;2023-04-15T12:16:54;15.53;;;14.07;;
3355;SDS011;1691;52.486;13.374;2023-04-15T12:21:58;15.73;;;12.73;;
3355;SDS011;1691;52.486;13.374;2023-04-15T12:24:32;16.50;;;13.90;;
3355;SDS011;1691;52.486;13.374;2023-04-15T12:27:10;18.37;;;15.80;;
3355;SDS011;1691;52.486;13.374;2023-04-15T12:29:40;16.33;;;14.27;;
3355;SDS011;1691;52.486;13.374;2023-04-15T12:32:11;14.03;;;12.90;;
3355;SDS011;1691;52.486;13.374;2023-04-15T12:34:49;10.90;;;10.07;;
3355;SDS011;1691;52.486;13.374;2023-04-15T12:37:17;13.27;;;11.93;;
3355;SDS011;1691;52.486;13.374;2023-04-15T12:39:45;14.60;;;12.10;;
3355;SDS011;1691;52.486;13.374;2023-04-15T12:42:14;10.87;;;9.80;;
3355;SDS011;1691;52.486;13.374;2023-04-15T12:44:42;12.40;;;11.40;;
3355;SDS011;1691;52.486;13.374;2023-04-15T12:47:10;13.57;;;12.20;;
3355;SDS011;1691;52.486;13.374;2023-04-15T12:49:37;11.20;;;10.30;;
3355;SDS011;1691;52.486;13.374;2023-04-15T12:52:05;12.70;;;11.67;;
3355;SDS011;1691;52.486;13.374;2023-04-15T12:54:32;10.90;;;10.00;;
3355;SDS011;1691;52.486;13.374;2023-04-15T12:57:01;10.43;;;9.50;;
3355;SDS011;1691;52.486;13.374;2023-04-15T12:59:32;12.37;;;11.30;;
3355;SDS011;1691;52.486;13.374;2023-04-15T13:01:59;12.67;;;11.40;;
3355;SDS011;1691;52.486;13.374;2023-04-15T13:04:28;10.70;;;9.70;;
3355;SDS011;1691;52.486;13.374;2023-04-15T13:06:56;13.40;;;12.10;;
3355;SDS011;1691;52.486;13.374;2023-04-15T13:09:23;12.60;;;11.63;;
3355;SDS011;1691;52.486;13.374;2023-04-15T13:11:51;12.90;;;11.63;;
3355;SDS011;1691;52.486;13.374;2023-04-15T13:14:18;11.47;;;10.20;;
3355;SDS011;1691;52.486;13.374;2023-04-15T13:16:45;11.87;;;10.67;;
3355;SDS011;1691;52.486;13.374;2023-04-15T13:19:12;9.97;;;9.33;;
3355;SDS011;1691;52.486;13.374;2023-04-15T13:21:39;11.73;;;10.67;;
3355;SDS011;1691;52.486;13.374;2023-04-15T13:24:06;11.13;;;10.10;;
3355;SDS011;1691;52.486;13.374;2023-04-15T13:26:34;14.40;;;9.50;;
3355;SDS011;1691;52.486;13.374;2023-04-15T13:29:01;10.33;;;9.50;;
3355;SDS011;1691;52.486;13.374;2023-04-15T13:31:28;10.90;;;10.00;;
3355;SDS011;1691;52.486;13.374;2023-04-15T13:33:56;11.23;;;10.33;;
3355;SDS011;1691;52.486;13.374;2023-04-15T13:36:23;10.17;;;9.50;;
3355;SDS011;1691;52.486;13.374;2023-04-15T13:38:50;12.57;;;10.33;;
3355;SDS011;1691;52.486;13.374;2023-04-15T13:41:17;11.33;;;10.33;;
3355;SDS011;1691;52.486;13.374;2023-04-15T13:43:45;10.53;;;9.87;;
3355;SDS011;1691;52.486;13.374;2023-04-15T13:46:12;12.63;;;9.43;;
3355;SDS011;1691;52.486;13.374;2023-04-15T13:48:40;9.53;;;8.60;;
3355;SDS011;1691;52.486;13.374;2023-04-15T13:51:07;7.87;;;7.33;;
3355;SDS011;1691;52.486;13.374;2023-04-15T13:53:34;10.53;;;9.73;;
3355;SDS011;1691;52.486;13.374;2023-04-15T13:56:07;13.40;;;8.90;;
3355;SDS011;1691;52.486;13.374;2023-04-15T13:58:35;15.07;;;12.00;;
3355;SDS011;1691;52.486;13.374;2023-04-15T14:01:03;10.07;;;9.17;;
3355;SDS011;1691;52.486;13.374;2023-04-15T14:03:35;9.80;;;8.87;;
3355;SDS011;1691;52.486;13.374;2023-04-15T14:06:04;10.23;;;9.30;;
3355;SDS011;1691;52.486;13.374;2023-04-15T14:08:31;9.30;;;8.70;;
3355;SDS011;1691;52.486;13.374;2023-04-15T14:10:58;10.83;;;8.80;;
3355;SDS011;1691;52.486;13.374;2023-04-15T14:13:26;10.57;;;9.70;;
3355;SDS011;1691;52.486;13.374;2023-04-15T14:15:53;9.73;;;9.13;;
3355;SDS011;1691;52.486;13.374;2023-04-15T14:18:20;9.80;;;8.77;;
3355;SDS011;1691;52.486;13.374;2023-04-15T14:20:47;8.57;;;7.90;;
3355;SDS011;1691;52.486;13.374;2023-04-15T14:23:14;10.13;;;9.40;;
3355;SDS011;1691;52.486;13.374;2023-04-15T14:25:41;8.67;;;8.03;;
3355;SDS011;1691;52.486;13.374;2023-04-15T14:28:10;8.20;;;7.70;;
3355;SDS011;1691;52.486;13.374;2023-04-15T14:30:37;9.27;;;8.67;;
3355;SDS011;1691;52.486;13.374;2023-04-15T14:33:04;8.60;;;8.00;;
3355;SDS011;1691;52.486;13.374;2023-04-15T14:35:31;8.13;;;7.47;;
3355;SDS011;1691;52.486;13.374;2023-04-15T14:37:58;26.33;;;9.40;;
3355;SDS011;1691;52.486;13.374;2023-04-15T14:40:25;9.10;;;8.60;;
3355;SDS011;1691;52.486;13.374;2023-04-15T14:42:52;8.00;;;7.40;;
3355;SDS011;1691;52.486;13.374;2023-04-15T14:45:19;9.10;;;8.30;;
3355;SDS011;1691;52.486;13.374;2023-04-15T14:47:46;7.90;;;7.40;;
3355;SDS011;1691;52.486;13.374;2023-04-15T14:50:13;7.83;;;7.43;;
3355;SDS011;1691;52.486;13.374;2023-04-15T14:52:40;9.90;;;9.10;;
3355;SDS011;1691;52.486;13.374;2023-04-15T14:55:08;9.53;;;8.83;;
3355;SDS011;1691;52.486;13.374;2023-04-15T14:57:37;7.90;;;7.30;;